Warsaw, Kentucky
Current Conditions -  °F | °C
As of 8:52 AM on Wednesday 26 Nov 2014 (Local Time) from KCVG Reporting Station
Haze Haze  
Wind Chill: 24°   Ceiling: 2600
Heat Index: 30°   Visibility: 6mi
Dew Point: 24°   Wind: 6mph
Humidity: 79%   Direction: 10°N
Pressure: 30.12"   Gusts: NA
Location:  38.78°N, 84.9°W
Report Text: KCVG 261352Z 01005KT 6SM HZ OVC026 M01/M04 A3012 RMK AO2 SLP206 T10111044
Loading
Personal Weather Stations






























Interactive Weather Map New forecast layout! Learn more

10-Day Weather Forecast

Advertisements
Track Severe Weather on mobile